sensor_id;sensor_type;location;lat;lon;timestamp;temperature;humidity
60242;SHT30;46103;52.076;113.488;2024-03-29T00:00:45;-11.26;35.94
60242;SHT30;46103;52.076;113.488;2024-03-29T00:04:02;-11.05;35.95
60242;SHT30;46103;52.076;113.488;2024-03-29T00:07:05;-10.87;35.55
60242;SHT30;46103;52.076;113.488;2024-03-29T00:10:08;-10.67;35.21
60242;SHT30;46103;52.076;113.488;2024-03-29T00:13:11;-10.63;35.07
60242;SHT30;46103;52.076;113.488;2024-03-29T00:16:12;-10.64;35.25
60242;SHT30;46103;52.076;113.488;2024-03-29T00:19:17;-10.58;35.10
60242;SHT30;46103;52.076;113.488;2024-03-29T00:22:18;-10.50;34.87
60242;SHT30;46103;52.076;113.488;2024-03-29T00:25:21;-10.52;34.78
60242;SHT30;46103;52.076;113.488;2024-03-29T00:28:23;-10.50;35.13
60242;SHT30;46103;52.076;113.488;2024-03-29T00:31:26;-10.40;35.01
60242;SHT30;46103;52.076;113.488;2024-03-29T00:34:28;-10.32;35.07
60242;SHT30;46103;52.076;113.488;2024-03-29T00:37:31;-10.37;34.90
60242;SHT30;46103;52.076;113.488;2024-03-29T00:40:35;-10.40;35.05
60242;SHT30;46103;52.076;113.488;2024-03-29T00:43:37;-10.42;35.08
60242;SHT30;46103;52.076;113.488;2024-03-29T00:46:40;-10.33;35.27
60242;SHT30;46103;52.076;113.488;2024-03-29T00:49:42;-10.11;35.02
60242;SHT30;46103;52.076;113.488;2024-03-29T00:52:45;-9.98;35.11
60242;SHT30;46103;52.076;113.488;2024-03-29T00:55:50;-9.74;34.85
60242;SHT30;46103;52.076;113.488;2024-03-29T00:58:52;-9.54;34.60
60242;SHT30;46103;52.076;113.488;2024-03-29T01:01:55;-9.44;34.35
60242;SHT30;46103;52.076;113.488;2024-03-29T01:04:56;-9.46;34.49
60242;SHT30;46103;52.076;113.488;2024-03-29T01:07:58;-9.31;34.34
60242;SHT30;46103;52.076;113.488;2024-03-29T01:11:01;-9.12;34.17
60242;SHT30;46103;52.076;113.488;2024-03-29T01:14:03;-9.22;34.10
60242;SHT30;46103;52.076;113.488;2024-03-29T01:17:05;-9.28;34.33
60242;SHT30;46103;52.076;113.488;2024-03-29T01:20:13;-9.15;34.35
60242;SHT30;46103;52.076;113.488;2024-03-29T01:23:15;-9.29;34.49
60242;SHT30;46103;52.076;113.488;2024-03-29T01:26:17;-9.12;34.49
60242;SHT30;46103;52.076;113.488;2024-03-29T01:29:21;-9.09;34.21
60242;SHT30;46103;52.076;113.488;2024-03-29T01:32:23;-9.12;34.04
60242;SHT30;46103;52.076;113.488;2024-03-29T01:35:25;-8.74;34.51
60242;SHT30;46103;52.076;113.488;2024-03-29T01:38:27;-8.35;34.13
60242;SHT30;46103;52.076;113.488;2024-03-29T01:41:29;-8.30;33.90
60242;SHT30;46103;52.076;113.488;2024-03-29T01:52:52;-8.70;34.78
60242;SHT30;46103;52.076;113.488;2024-03-29T01:55:54;-8.49;34.52
60242;SHT30;46103;52.076;113.488;2024-03-29T01:58:58;-8.22;34.72
60242;SHT30;46103;52.076;113.488;2024-03-29T02:02:01;-8.12;33.92
60242;SHT30;46103;52.076;113.488;2024-03-29T02:05:03;-8.19;34.42
60242;SHT30;46103;52.076;113.488;2024-03-29T02:08:07;-8.24;34.29
60242;SHT30;46103;52.076;113.488;2024-03-29T02:11:10;-8.04;34.39
60242;SHT30;46103;52.076;113.488;2024-03-29T02:14:13;-7.94;34.26
60242;SHT30;46103;52.076;113.488;2024-03-29T02:17:15;-7.88;33.91
60242;SHT30;46103;52.076;113.488;2024-03-29T02:20:17;-7.88;33.48
60242;SHT30;46103;52.076;113.488;2024-03-29T02:23:21;-7.97;33.71
60242;SHT30;46103;52.076;113.488;2024-03-29T02:26:26;-7.73;33.88
60242;SHT30;46103;52.076;113.488;2024-03-29T02:29:38;-7.71;34.20
60242;SHT30;46103;52.076;113.488;2024-03-29T02:32:40;-7.47;33.65
60242;SHT30;46103;52.076;113.488;2024-03-29T02:35:43;-7.52;33.73
60242;SHT30;46103;52.076;113.488;2024-03-29T02:38:45;-7.44;33.82
60242;SHT30;46103;52.076;113.488;2024-03-29T02:41:48;-7.49;33.58
60242;SHT30;46103;52.076;113.488;2024-03-29T02:44:50;-7.43;33.93
60242;SHT30;46103;52.076;113.488;2024-03-29T02:47:53;-7.38;33.89
60242;SHT30;46103;52.076;113.488;2024-03-29T02:50:55;-7.05;33.66
60242;SHT30;46103;52.076;113.488;2024-03-29T02:53:58;-7.08;33.47
60242;SHT30;46103;52.076;113.488;2024-03-29T02:57:00;-6.98;33.68
60242;SHT30;46103;52.076;113.488;2024-03-29T03:00:02;-7.03;33.38
60242;SHT30;46103;52.076;113.488;2024-03-29T03:03:05;-7.16;33.39
60242;SHT30;46103;52.076;113.488;2024-03-29T03:06:07;-6.97;33.57
60242;SHT30;46103;52.076;113.488;2024-03-29T03:09:09;-6.54;33.33
60242;SHT30;46103;52.076;113.488;2024-03-29T03:12:30;-6.60;32.88
60242;SHT30;46103;52.076;113.488;2024-03-29T03:15:32;-6.40;33.11
60242;SHT30;46103;52.076;113.488;2024-03-29T03:18:35;-6.49;33.00
60242;SHT30;46103;52.076;113.488;2024-03-29T03:21:37;-6.49;33.22
60242;SHT30;46103;52.076;113.488;2024-03-29T03:24:40;-6.49;33.22
60242;SHT30;46103;52.076;113.488;2024-03-29T03:27:43;-6.52;33.17
60242;SHT30;46103;52.076;113.488;2024-03-29T03:30:45;-6.28;32.74
60242;SHT30;46103;52.076;113.488;2024-03-29T03:33:48;-6.36;32.73
60242;SHT30;46103;52.076;113.488;2024-03-29T03:36:50;-6.53;33.05
60242;SHT30;46103;52.076;113.488;2024-03-29T03:39:55;-6.36;32.94
60242;SHT30;46103;52.076;113.488;2024-03-29T03:56:17;-5.91;31.79
60242;SHT30;46103;52.076;113.488;2024-03-29T03:59:53;-5.87;31.89
60242;SHT30;46103;52.076;113.488;2024-03-29T04:03:22;-5.88;31.52
60242;SHT30;46103;52.076;113.488;2024-03-29T04:15:28;-6.14;31.96
60242;SHT30;46103;52.076;113.488;2024-03-29T04:18:36;-5.95;31.89
60242;SHT30;46103;52.076;113.488;2024-03-29T04:22:12;-5.77;31.65
60242;SHT30;46103;52.076;113.488;2024-03-29T04:25:37;-5.52;31.20
60242;SHT30;46103;52.076;113.488;2024-03-29T04:28:48;-5.69;30.84
60242;SHT30;46103;52.076;113.488;2024-03-29T04:31:54;-5.52;31.34
60242;SHT30;46103;52.076;113.488;2024-03-29T04:34:57;-5.32;31.01
60242;SHT30;46103;52.076;113.488;2024-03-29T04:38:05;-5.19;30.63
60242;SHT30;46103;52.076;113.488;2024-03-29T04:44:38;-5.09;30.01
60242;SHT30;46103;52.076;113.488;2024-03-29T04:47:41;-5.08;29.92
60242;SHT30;46103;52.076;113.488;2024-03-29T04:50:43;-5.15;30.23
60242;SHT30;46103;52.076;113.488;2024-03-29T04:53:46;-5.14;30.18
60242;SHT30;46103;52.076;113.488;2024-03-29T04:56:52;-4.90;29.75
60242;SHT30;46103;52.076;113.488;2024-03-29T04:59:55;-4.70;29.56
60242;SHT30;46103;52.076;113.488;2024-03-29T05:02:57;-4.28;29.17
60242;SHT30;46103;52.076;113.488;2024-03-29T05:06:00;-3.97;28.79
60242;SHT30;46103;52.076;113.488;2024-03-29T05:09:01;-3.93;28.52
60242;SHT30;46103;52.076;113.488;2024-03-29T05:12:04;-4.17;28.58
60242;SHT30;46103;52.076;113.488;2024-03-29T05:15:06;-4.35;28.82
60242;SHT30;46103;52.076;113.488;2024-03-29T05:18:09;-4.69;29.19
60242;SHT30;46103;52.076;113.488;2024-03-29T05:21:12;-4.53;29.46
60242;SHT30;46103;52.076;113.488;2024-03-29T05:24:15;-4.39;29.19
60242;SHT30;46103;52.076;113.488;2024-03-29T05:27:18;-4.15;28.81
60242;SHT30;46103;52.076;113.488;2024-03-29T05:30:20;-4.26;28.69
60242;SHT30;46103;52.076;113.488;2024-03-29T05:33:22;-4.26;28.77
60242;SHT30;46103;52.076;113.488;2024-03-29T05:36:25;-4.02;28.73
60242;SHT30;46103;52.076;113.488;2024-03-29T05:39:27;-3.95;28.62
60242;SHT30;46103;52.076;113.488;2024-03-29T05:42:33;-4.04;28.60
60242;SHT30;46103;52.076;113.488;2024-03-29T05:45:36;-4.29;28.82
60242;SHT30;46103;52.076;113.488;2024-03-29T05:48:39;-4.14;28.79
60242;SHT30;46103;52.076;113.488;2024-03-29T05:51:40;-4.09;28.83
60242;SHT30;46103;52.076;113.488;2024-03-29T05:54:45;-3.95;28.75
60242;SHT30;46103;52.076;113.488;2024-03-29T05:57:47;-3.87;28.72
60242;SHT30;46103;52.076;113.488;2024-03-29T06:00:50;-3.90;28.52
60242;SHT30;46103;52.076;113.488;2024-03-29T06:03:52;-3.88;28.72
60242;SHT30;46103;52.076;113.488;2024-03-29T06:06:56;-3.55;28.45
60242;SHT30;46103;52.076;113.488;2024-03-29T06:09:59;-3.24;28.12
60242;SHT30;46103;52.076;113.488;2024-03-29T06:13:06;-3.39;28.02
60242;SHT30;46103;52.076;113.488;2024-03-29T06:16:10;-3.21;28.09
60242;SHT30;46103;52.076;113.488;2024-03-29T06:19:31;-3.39;28.09
60242;SHT30;46103;52.076;113.488;2024-03-29T06:22:33;-3.36;28.17
60242;SHT30;46103;52.076;113.488;2024-03-29T06:25:36;-3.12;27.75
60242;SHT30;46103;52.076;113.488;2024-03-29T06:28:39;-3.22;27.77
60242;SHT30;46103;52.076;113.488;2024-03-29T06:31:41;-2.91;27.58
60242;SHT30;46103;52.076;113.488;2024-03-29T06:34:44;-2.48;27.32
60242;SHT30;46103;52.076;113.488;2024-03-29T06:37:47;-2.27;26.83
60242;SHT30;46103;52.076;113.488;2024-03-29T06:40:49;-1.73;26.50
60242;SHT30;46103;52.076;113.488;2024-03-29T06:43:52;-1.55;26.09
60242;SHT30;46103;52.076;113.488;2024-03-29T06:46:54;-1.84;26.51
60242;SHT30;46103;52.076;113.488;2024-03-29T06:49:56;-1.94;26.31
60242;SHT30;46103;52.076;113.488;2024-03-29T06:53:01;-1.89;26.59
60242;SHT30;46103;52.076;113.488;2024-03-29T06:56:03;-1.70;26.29
60242;SHT30;46103;52.076;113.488;2024-03-29T06:59:05;-1.39;26.19
60242;SHT30;46103;52.076;113.488;2024-03-29T07:02:08;-1.42;26.06
60242;SHT30;46103;52.076;113.488;2024-03-29T07:05:11;-1.14;25.88
60242;SHT30;46103;52.076;113.488;2024-03-29T07:08:14;-1.32;25.77
60242;SHT30;46103;52.076;113.488;2024-03-29T07:11:16;-1.27;25.95
60242;SHT30;46103;52.076;113.488;2024-03-29T07:14:20;-1.15;25.81
60242;SHT30;46103;52.076;113.488;2024-03-29T07:17:28;-1.04;25.67
60242;SHT30;46103;52.076;113.488;2024-03-29T07:20:37;-1.04;25.76
60242;SHT30;46103;52.076;113.488;2024-03-29T07:23:44;-0.87;25.58
60242;SHT30;46103;52.076;113.488;2024-03-29T07:26:47;-0.72;25.30
60242;SHT30;46103;52.076;113.488;2024-03-29T07:29:48;-0.63;25.08
60242;SHT30;46103;52.076;113.488;2024-03-29T07:32:51;-0.19;24.94
60242;SHT30;46103;52.076;113.488;2024-03-29T07:35:53;0.55;24.43
60242;SHT30;46103;52.076;113.488;2024-03-29T07:38:55;0.85;23.88
60242;SHT30;46103;52.076;113.488;2024-03-29T07:41:57;0.72;23.94
60242;SHT30;46103;52.076;113.488;2024-03-29T07:44:59;1.34;23.60
60242;SHT30;46103;52.076;113.488;2024-03-29T07:48:02;1.44;23.33
60242;SHT30;46103;52.076;113.488;2024-03-29T07:51:04;1.39;23.33
60242;SHT30;46103;52.076;113.488;2024-03-29T07:54:07;1.81;23.06
60242;SHT30;46103;52.076;113.488;2024-03-29T07:57:10;1.78;22.83
60242;SHT30;46103;52.076;113.488;2024-03-29T08:00:13;1.77;23.09
60242;SHT30;46103;52.076;113.488;2024-03-29T08:03:16;1.94;23.01
60242;SHT30;46103;52.076;113.488;2024-03-29T08:06:18;1.95;22.82
60242;SHT30;46103;52.076;113.488;2024-03-29T08:09:21;2.12;22.77
60242;SHT30;46103;52.076;113.488;2024-03-29T08:12:23;2.10;23.14
60242;SHT30;46103;52.076;113.488;2024-03-29T08:15:25;2.34;22.77
60242;SHT30;46103;52.076;113.488;2024-03-29T08:18:31;2.93;22.48
60242;SHT30;46103;52.076;113.488;2024-03-29T08:21:34;3.09;22.38
60242;SHT30;46103;52.076;113.488;2024-03-29T08:24:37;2.89;22.21
60242;SHT30;46103;52.076;113.488;2024-03-29T08:27:39;2.48;22.79
60242;SHT30;46103;52.076;113.488;2024-03-29T08:30:42;3.01;22.70
60242;SHT30;46103;52.076;113.488;2024-03-29T08:33:44;3.20;22.45
60242;SHT30;46103;52.076;113.488;2024-03-29T08:36:46;3.50;22.32
60242;SHT30;46103;52.076;113.488;2024-03-29T08:39:48;3.49;21.91
60242;SHT30;46103;52.076;113.488;2024-03-29T08:42:50;2.87;22.49
60242;SHT30;46103;52.076;113.488;2024-03-29T08:45:52;2.38;23.01
60242;SHT30;46103;52.076;113.488;2024-03-29T08:48:55;2.54;23.08
60242;SHT30;46103;52.076;113.488;2024-03-29T08:51:57;3.05;22.88
60242;SHT30;46103;52.076;113.488;2024-03-29T08:55:07;3.85;22.17
60242;SHT30;46103;52.076;113.488;2024-03-29T08:58:09;4.09;21.95
60242;SHT30;46103;52.076;113.488;2024-03-29T09:01:12;3.75;22.07
60242;SHT30;46103;52.076;113.488;2024-03-29T09:04:16;3.89;22.03
60242;SHT30;46103;52.076;113.488;2024-03-29T09:07:18;3.82;22.17
60242;SHT30;46103;52.076;113.488;2024-03-29T09:10:22;3.78;22.05
60242;SHT30;46103;52.076;113.488;2024-03-29T09:13:25;3.74;22.17
60242;SHT30;46103;52.076;113.488;2024-03-29T09:16:28;4.08;21.95
60242;SHT30;46103;52.076;113.488;2024-03-29T09:19:32;3.96;21.94
60242;SHT30;46103;52.076;113.488;2024-03-29T09:22:35;3.75;22.14
60242;SHT30;46103;52.076;113.488;2024-03-29T09:25:40;4.20;21.89
60242;SHT30;46103;52.076;113.488;2024-03-29T09:28:42;4.37;21.67
60242;SHT30;46103;52.076;113.488;2024-03-29T09:31:43;4.72;21.42
60242;SHT30;46103;52.076;113.488;2024-03-29T09:34:45;4.34;21.58
60242;SHT30;46103;52.076;113.488;2024-03-29T09:37:47;4.09;21.52
60242;SHT30;46103;52.076;113.488;2024-03-29T09:40:50;4.09;21.64
60242;SHT30;46103;52.076;113.488;2024-03-29T09:43:57;4.22;21.62
60242;SHT30;46103;52.076;113.488;2024-03-29T09:47:03;4.09;21.44
60242;SHT30;46103;52.076;113.488;2024-03-29T09:50:06;3.64;21.96
60242;SHT30;46103;52.076;113.488;2024-03-29T09:53:09;3.70;22.05
60242;SHT30;46103;52.076;113.488;2024-03-29T09:56:11;4.74;21.40
60242;SHT30;46103;52.076;113.488;2024-03-29T09:59:17;5.22;20.91
60242;SHT30;46103;52.076;113.488;2024-03-29T10:02:21;5.39;20.72
60242;SHT30;46103;52.076;113.488;2024-03-29T10:05:26;5.47;20.32
60242;SHT30;46103;52.076;113.488;2024-03-29T10:08:31;5.61;20.54
60242;SHT30;46103;52.076;113.488;2024-03-29T10:11:33;5.88;20.12
60242;SHT30;46103;52.076;113.488;2024-03-29T10:14:51;5.39;20.35
60242;SHT30;46103;52.076;113.488;2024-03-29T10:17:57;5.39;20.47
60242;SHT30;46103;52.076;113.488;2024-03-29T10:21:03;5.05;20.73
60242;SHT30;46103;52.076;113.488;2024-03-29T10:24:14;4.57;21.03
60242;SHT30;46103;52.076;113.488;2024-03-29T10:27:17;4.33;21.48
60242;SHT30;46103;52.076;113.488;2024-03-29T10:30:20;4.58;21.35
60242;SHT30;46103;52.076;113.488;2024-03-29T10:33:22;4.33;21.46
60242;SHT30;46103;52.076;113.488;2024-03-29T10:36:25;3.85;21.72
60242;SHT30;46103;52.076;113.488;2024-03-29T10:39:29;3.47;22.07
60242;SHT30;46103;52.076;113.488;2024-03-29T10:42:37;2.68;22.63
60242;SHT30;46103;52.076;113.488;2024-03-29T10:45:40;1.85;23.49
60242;SHT30;46103;52.076;113.488;2024-03-29T10:48:43;0.97;24.18
60242;SHT30;46103;52.076;113.488;2024-03-29T10:51:46;0.24;25.00
60242;SHT30;46103;52.076;113.488;2024-03-29T10:54:51;-0.38;25.65
60242;SHT30;46103;52.076;113.488;2024-03-29T10:57:53;-0.81;26.26
60242;SHT30;46103;52.076;113.488;2024-03-29T11:00:57;-1.24;26.74
60242;SHT30;46103;52.076;113.488;2024-03-29T11:04:08;-1.56;27.23
60242;SHT30;46103;52.076;113.488;2024-03-29T11:07:18;-1.89;27.66
60242;SHT30;46103;52.076;113.488;2024-03-29T11:10:34;-2.27;28.20
60242;SHT30;46103;52.076;113.488;2024-03-29T11:17:00;-2.88;29.09
60242;SHT30;46103;52.076;113.488;2024-03-29T11:20:06;-3.03;29.25
60242;SHT30;46103;52.076;113.488;2024-03-29T11:23:11;-3.18;29.54
60242;SHT30;46103;52.076;113.488;2024-03-29T11:26:15;-3.30;29.68
60242;SHT30;46103;52.076;113.488;2024-03-29T11:29:23;-3.39;29.94
60242;SHT30;46103;52.076;113.488;2024-03-29T11:32:36;-3.53;30.11
60242;SHT30;46103;52.076;113.488;2024-03-29T11:35:49;-3.63;30.29
60242;SHT30;46103;52.076;113.488;2024-03-29T11:38:52;-3.69;30.40
60242;SHT30;46103;52.076;113.488;2024-03-29T11:49:56;-4.00;30.99
60242;SHT30;46103;52.076;113.488;2024-03-29T11:53:15;-4.15;31.19
60242;SHT30;46103;52.076;113.488;2024-03-29T11:56:36;-4.25;31.39
60242;SHT30;46103;52.076;113.488;2024-03-29T11:59:57;-4.36;31.52
60242;SHT30;46103;52.076;113.488;2024-03-29T12:03:20;-4.48;31.77
60242;SHT30;46103;52.076;113.488;2024-03-29T12:06:40;-4.52;31.87
60242;SHT30;46103;52.076;113.488;2024-03-29T12:09:58;-4.60;32.10
60242;SHT30;46103;52.076;113.488;2024-03-29T12:13:16;-4.70;32.27
60242;SHT30;46103;52.076;113.488;2024-03-29T12:16:24;-4.72;32.33
60242;SHT30;46103;52.076;113.488;2024-03-29T12:19:41;-4.77;32.36
60242;SHT30;46103;52.076;113.488;2024-03-29T12:22:46;-4.84;32.50
60242;SHT30;46103;52.076;113.488;2024-03-29T12:26:03;-4.94;32.64
60242;SHT30;46103;52.076;113.488;2024-03-29T12:29:13;-5.01;32.80
60242;SHT30;46103;52.076;113.488;2024-03-29T12:32:19;-5.08;32.93
60242;SHT30;46103;52.076;113.488;2024-03-29T12:35:22;-5.15;33.07
60242;SHT30;46103;52.076;113.488;2024-03-29T12:38:24;-5.19;33.11
60242;SHT30;46103;52.076;113.488;2024-03-29T12:41:43;-5.28;33.22
60242;SHT30;46103;52.076;113.488;2024-03-29T12:44:49;-5.28;33.27
60242;SHT30;46103;52.076;113.488;2024-03-29T12:47:53;-5.35;33.29
60242;SHT30;46103;52.076;113.488;2024-03-29T12:56:07;-5.44;33.69
60242;SHT30;46103;52.076;113.488;2024-03-29T12:59:15;-5.48;33.72
60242;SHT30;46103;52.076;113.488;2024-03-29T13:06:44;-5.63;34.36
60242;SHT30;46103;52.076;113.488;2024-03-29T13:09:47;-5.77;34.69
60242;SHT30;46103;52.076;113.488;2024-03-29T13:12:52;-5.87;35.20
60242;SHT30;46103;52.076;113.488;2024-03-29T13:15:56;-5.91;35.45
60242;SHT30;46103;52.076;113.488;2024-03-29T13:18:57;-6.01;35.56
60242;SHT30;46103;52.076;113.488;2024-03-29T13:22:00;-6.07;35.60
60242;SHT30;46103;52.076;113.488;2024-03-29T13:25:03;-6.14;35.78
60242;SHT30;46103;52.076;113.488;2024-03-29T13:28:07;-6.19;35.49
60242;SHT30;46103;52.076;113.488;2024-03-29T13:31:09;-6.29;35.70
60242;SHT30;46103;52.076;113.488;2024-03-29T13:34:15;-6.36;35.64
60242;SHT30;46103;52.076;113.488;2024-03-29T13:37:19;-6.50;35.91
60242;SHT30;46103;52.076;113.488;2024-03-29T13:40:23;-6.64;36.12
60242;SHT30;46103;52.076;113.488;2024-03-29T13:43:28;-6.73;36.35
60242;SHT30;46103;52.076;113.488;2024-03-29T13:46:34;-6.85;36.63
60242;SHT30;46103;52.076;113.488;2024-03-29T13:49:36;-6.94;36.79
60242;SHT30;46103;52.076;113.488;2024-03-29T13:52:39;-7.01;36.96
60242;SHT30;46103;52.076;113.488;2024-03-29T13:55:41;-7.05;37.11
60242;SHT30;46103;52.076;113.488;2024-03-29T13:58:44;-7.16;37.37
60242;SHT30;46103;52.076;113.488;2024-03-29T14:01:46;-7.21;37.47
60242;SHT30;46103;52.076;113.488;2024-03-29T14:04:48;-7.28;37.68
60242;SHT30;46103;52.076;113.488;2024-03-29T14:07:51;-7.40;38.01
60242;SHT30;46103;52.076;113.488;2024-03-29T14:10:54;-7.50;38.26
60242;SHT30;46103;52.076;113.488;2024-03-29T14:13:56;-7.60;38.50
60242;SHT30;46103;52.076;113.488;2024-03-29T14:16:59;-7.66;38.64
60242;SHT30;46103;52.076;113.488;2024-03-29T14:20:13;-7.73;38.82
60242;SHT30;46103;52.076;113.488;2024-03-29T14:23:15;-7.77;38.98
60242;SHT30;46103;52.076;113.488;2024-03-29T14:26:20;-7.80;39.03
60242;SHT30;46103;52.076;113.488;2024-03-29T14:29:22;-7.84;39.80
60242;SHT30;46103;52.076;113.488;2024-03-29T14:32:24;-7.86;39.93
60242;SHT30;46103;52.076;113.488;2024-03-29T14:35:27;-7.88;39.86
60242;SHT30;46103;52.076;113.488;2024-03-29T14:38:32;-7.97;39.86
60242;SHT30;46103;52.076;113.488;2024-03-29T14:41:36;-8.02;40.28
60242;SHT30;46103;52.076;113.488;2024-03-29T14:44:41;-8.04;40.16
60242;SHT30;46103;52.076;113.488;2024-03-29T14:47:43;-8.07;40.38
60242;SHT30;46103;52.076;113.488;2024-03-29T14:50:45;-8.09;40.25
60242;SHT30;46103;52.076;113.488;2024-03-29T14:53:48;-8.12;40.02
60242;SHT30;46103;52.076;113.488;2024-03-29T14:56:52;-8.17;39.92
60242;SHT30;46103;52.076;113.488;2024-03-29T14:59:54;-8.19;40.07
60242;SHT30;46103;52.076;113.488;2024-03-29T15:02:56;-8.22;40.06
60242;SHT30;46103;52.076;113.488;2024-03-29T15:06:00;-8.25;40.11
60242;SHT30;46103;52.076;113.488;2024-03-29T15:09:03;-8.32;40.21
60242;SHT30;46103;52.076;113.488;2024-03-29T15:12:08;-8.32;40.33
60242;SHT30;46103;52.076;113.488;2024-03-29T15:15:13;-8.32;40.21
60242;SHT30;46103;52.076;113.488;2024-03-29T15:18:15;-8.36;40.12
60242;SHT30;46103;52.076;113.488;2024-03-29T15:21:17;-8.36;39.94
60242;SHT30;46103;52.076;113.488;2024-03-29T15:24:20;-8.36;39.75
60242;SHT30;46103;52.076;113.488;2024-03-29T15:27:22;-8.33;39.73
60242;SHT30;46103;52.076;113.488;2024-03-29T15:30:42;-8.39;39.79
60242;SHT30;46103;52.076;113.488;2024-03-29T15:33:53;-8.39;39.66
60242;SHT30;46103;52.076;113.488;2024-03-29T15:36:55;-8.46;39.73
60242;SHT30;46103;52.076;113.488;2024-03-29T15:39:59;-8.43;39.59
60242;SHT30;46103;52.076;113.488;2024-03-29T15:43:12;-8.43;39.57
60242;SHT30;46103;52.076;113.488;2024-03-29T15:46:16;-8.46;39.71
60242;SHT30;46103;52.076;113.488;2024-03-29T15:49:19;-8.50;39.67
60242;SHT30;46103;52.076;113.488;2024-03-29T16:06:49;-8.77;40.21
60242;SHT30;46103;52.076;113.488;2024-03-29T16:10:06;-8.87;40.48
60242;SHT30;46103;52.076;113.488;2024-03-29T16:13:26;-8.91;40.71
60242;SHT30;46103;52.076;113.488;2024-03-29T16:16:49;-8.90;40.75
60242;SHT30;46103;52.076;113.488;2024-03-29T16:20:07;-8.88;40.67
60242;SHT30;46103;52.076;113.488;2024-03-29T16:23:27;-8.95;40.73
60242;SHT30;46103;52.076;113.488;2024-03-29T16:26:45;-9.01;40.85
60242;SHT30;46103;52.076;113.488;2024-03-29T16:29:48;-9.05;40.78
60242;SHT30;46103;52.076;113.488;2024-03-29T16:33:06;-9.11;40.82
60242;SHT30;46103;52.076;113.488;2024-03-29T16:36:09;-9.18;41.06
60242;SHT30;46103;52.076;113.488;2024-03-29T16:39:15;-9.25;41.18
60242;SHT30;46103;52.076;113.488;2024-03-29T16:42:27;-9.32;41.31
60242;SHT30;46103;52.076;113.488;2024-03-29T17:17:39;-9.59;41.42
60242;SHT30;46103;52.076;113.488;2024-03-29T17:20:51;-9.63;41.62
60242;SHT30;46103;52.076;113.488;2024-03-29T17:23:53;-9.67;41.53
60242;SHT30;46103;52.076;113.488;2024-03-29T17:26:56;-9.69;41.41
60242;SHT30;46103;52.076;113.488;2024-03-29T17:29:59;-9.70;41.42
60242;SHT30;46103;52.076;113.488;2024-03-29T17:33:03;-9.78;41.61
60242;SHT30;46103;52.076;113.488;2024-03-29T17:36:20;-9.81;41.67
60242;SHT30;46103;52.076;113.488;2024-03-29T17:39:23;-9.93;41.84
60242;SHT30;46103;52.076;113.488;2024-03-29T17:42:25;-9.98;42.08
60242;SHT30;46103;52.076;113.488;2024-03-29T18:00:50;-10.25;42.36
60242;SHT30;46103;52.076;113.488;2024-03-29T18:04:12;-10.32;42.54
60242;SHT30;46103;52.076;113.488;2024-03-29T18:08:54;-10.50;42.99
60242;SHT30;46103;52.076;113.488;2024-03-29T18:11:56;-10.61;43.06
60242;SHT30;46103;52.076;113.488;2024-03-29T18:15:02;-10.70;43.31
60242;SHT30;46103;52.076;113.488;2024-03-29T18:19:23;-10.75;43.41
60242;SHT30;46103;52.076;113.488;2024-03-29T18:23:57;-10.84;43.63
60242;SHT30;46103;52.076;113.488;2024-03-29T18:31:08;-10.92;43.61
60242;SHT30;46103;52.076;113.488;2024-03-29T18:53:17;-11.12;43.89
60242;SHT30;46103;52.076;113.488;2024-03-29T18:56:19;-11.14;44.02
60242;SHT30;46103;52.076;113.488;2024-03-29T18:59:22;-11.15;43.90
60242;SHT30;46103;52.076;113.488;2024-03-29T19:02:25;-11.18;43.95
60242;SHT30;46103;52.076;113.488;2024-03-29T19:05:28;-11.22;44.03
60242;SHT30;46103;52.076;113.488;2024-03-29T19:08:30;-11.26;44.06
60242;SHT30;46103;52.076;113.488;2024-03-29T19:11:32;-11.26;44.01
60242;SHT30;46103;52.076;113.488;2024-03-29T19:14:34;-11.29;44.03
60242;SHT30;46103;52.076;113.488;2024-03-29T19:17:40;-11.39;44.25
60242;SHT30;46103;52.076;113.488;2024-03-29T19:20:42;-11.50;44.36
60242;SHT30;46103;52.076;113.488;2024-03-29T19:23:45;-11.53;44.39
60242;SHT30;46103;52.076;113.488;2024-03-29T19:26:51;-11.53;44.45
60242;SHT30;46103;52.076;113.488;2024-03-29T19:29:56;-11.56;44.43
60242;SHT30;46103;52.076;113.488;2024-03-29T19:32:58;-11.59;44.52
60242;SHT30;46103;52.076;113.488;2024-03-29T19:43:46;-11.67;44.67
60242;SHT30;46103;52.076;113.488;2024-03-29T19:46:56;-11.77;44.98
60242;SHT30;46103;52.076;113.488;2024-03-29T19:49:58;-11.85;45.02
60242;SHT30;46103;52.076;113.488;2024-03-29T19:53:10;-11.84;45.07
60242;SHT30;46103;52.076;113.488;2024-03-29T19:56:37;-11.92;45.19
60242;SHT30;46103;52.076;113.488;2024-03-29T19:59:48;-11.95;45.37
60242;SHT30;46103;52.076;113.488;2024-03-29T20:02:51;-11.97;45.14
60242;SHT30;46103;52.076;113.488;2024-03-29T20:05:54;-12.03;45.35
60242;SHT30;46103;52.076;113.488;2024-03-29T20:08:56;-12.03;45.39
60242;SHT30;46103;52.076;113.488;2024-03-29T20:11:59;-12.03;45.30
60242;SHT30;46103;52.076;113.488;2024-03-29T20:15:04;-12.05;45.27
60242;SHT30;46103;52.076;113.488;2024-03-29T20:18:11;-12.12;45.43
60242;SHT30;46103;52.076;113.488;2024-03-29T20:21:13;-12.15;45.54
60242;SHT30;46103;52.076;113.488;2024-03-29T20:24:16;-12.19;45.57
60242;SHT30;46103;52.076;113.488;2024-03-29T20:27:30;-12.28;45.76
60242;SHT30;46103;52.076;113.488;2024-03-29T20:30:34;-12.42;46.17
60242;SHT30;46103;52.076;113.488;2024-03-29T20:33:36;-12.45;46.25
60242;SHT30;46103;52.076;113.488;2024-03-29T20:51:00;-12.45;46.25
60242;SHT30;46103;52.076;113.488;2024-03-29T20:54:35;-12.40;45.96
60242;SHT30;46103;52.076;113.488;2024-03-29T20:57:45;-12.43;45.90
60242;SHT30;46103;52.076;113.488;2024-03-29T21:00:52;-12.45;45.88
60242;SHT30;46103;52.076;113.488;2024-03-29T21:03:58;-12.46;45.87
60242;SHT30;46103;52.076;113.488;2024-03-29T21:11:09;-12.52;45.93
60242;SHT30;46103;52.076;113.488;2024-03-29T21:14:12;-12.56;46.04
60242;SHT30;46103;52.076;113.488;2024-03-29T21:21:23;-12.68;46.30
60242;SHT30;46103;52.076;113.488;2024-03-29T21:24:25;-12.70;46.51
60242;SHT30;46103;52.076;113.488;2024-03-29T21:27:33;-12.70;46.40
60242;SHT30;46103;52.076;113.488;2024-03-29T21:30:36;-12.70;46.38
60242;SHT30;46103;52.076;113.488;2024-03-29T21:33:45;-12.74;46.38
60242;SHT30;46103;52.076;113.488;2024-03-29T21:36:53;-12.77;46.40
60242;SHT30;46103;52.076;113.488;2024-03-29T21:39:57;-12.81;46.51
60242;SHT30;46103;52.076;113.488;2024-03-29T21:43:00;-12.87;46.66
60242;SHT30;46103;52.076;113.488;2024-03-29T21:46:05;-12.80;46.50
60242;SHT30;46103;52.076;113.488;2024-03-29T21:49:07;-12.85;46.53